createdAt,value
2019-01-11T00:01:33.598Z,0.83
2019-01-11T00:04:15.583Z,1.20
2019-01-11T00:06:56.855Z,1.50
2019-01-11T00:09:36.427Z,1.43
2019-01-11T00:12:17.751Z,1.30
2019-01-11T00:14:59.117Z,0.73
2019-01-11T00:17:40.387Z,1.00
2019-01-11T00:20:20.026Z,1.53
2019-01-11T00:23:01.165Z,2.13
2019-01-11T00:25:42.591Z,0.80
2019-01-11T00:28:23.774Z,1.47
2019-01-11T00:31:04.914Z,1.30
2019-01-11T00:33:46.075Z,1.10
2019-01-11T00:36:27.323Z,0.97
2019-01-11T00:39:08.767Z,0.70
2019-01-11T00:41:51.018Z,0.80
2019-01-11T00:44:32.090Z,1.33
2019-01-11T00:47:13.248Z,1.00
2019-01-11T00:49:54.679Z,1.07
2019-01-11T00:52:34.351Z,1.70
2019-01-11T00:55:16.411Z,0.87
2019-01-11T00:57:57.650Z,1.47
2019-01-11T01:00:38.756Z,1.33
2019-01-11T01:03:20.406Z,0.80
2019-01-11T01:06:01.903Z,1.10
2019-01-11T01:08:43.231Z,1.40
2019-01-11T01:11:24.450Z,1.00
2019-01-11T01:14:05.724Z,1.00
2019-01-11T01:16:46.944Z,1.10
2019-01-11T01:19:28.115Z,1.00
2019-01-11T01:22:09.723Z,1.00
2019-01-11T01:24:51.755Z,0.93
2019-01-11T01:27:33.011Z,1.07
2019-01-11T01:30:14.775Z,0.67
2019-01-11T01:32:56.237Z,1.40
2019-01-11T01:35:37.695Z,1.17
2019-01-11T01:38:19.410Z,1.13
2019-01-11T01:41:01.039Z,1.73
2019-01-11T01:43:43.131Z,1.30
2019-01-11T01:46:24.272Z,0.70
2019-01-11T01:49:05.655Z,2.70
2019-01-11T01:51:47.715Z,0.80
2019-01-11T01:54:29.190Z,1.03
2019-01-11T01:57:11.111Z,1.33
2019-01-11T01:59:50.815Z,1.87
2019-01-11T02:02:32.396Z,0.90
2019-01-11T02:05:13.792Z,1.30
2019-01-11T02:07:53.447Z,0.90
2019-01-11T02:10:35.385Z,1.33
2019-01-11T02:13:17.443Z,1.20
2019-01-11T02:15:58.971Z,1.23
2019-01-11T02:18:40.355Z,0.97
2019-01-11T02:21:21.578Z,1.30
2019-01-11T02:24:03.586Z,1.13
2019-01-11T02:26:44.799Z,1.00
2019-01-11T02:32:25.568Z,0.80
2019-01-11T02:35:06.814Z,0.97
2019-01-11T02:37:48.059Z,0.70
2019-01-11T02:40:29.517Z,1.00
2019-01-11T02:43:10.821Z,0.70
2019-01-11T02:45:52.782Z,1.23
2019-01-11T02:48:34.300Z,1.27
2019-01-11T02:51:15.718Z,1.07
2019-01-11T02:53:56.951Z,0.97
2019-01-11T02:56:38.103Z,1.20
2019-01-11T02:59:19.626Z,1.33
2019-01-11T03:01:59.195Z,1.27
2019-01-11T03:04:38.731Z,1.13
2019-01-11T03:07:20.516Z,1.50
2019-01-11T03:10:01.769Z,1.00
2019-01-11T03:12:41.419Z,0.57
2019-01-11T03:15:23.380Z,1.03
2019-01-11T03:18:04.526Z,1.17
2019-01-11T03:20:46.059Z,0.80
2019-01-11T03:23:27.242Z,0.80
2019-01-11T03:26:08.463Z,0.60
2019-01-11T03:28:49.694Z,1.10
2019-01-11T03:31:32.571Z,1.13
2019-01-11T03:34:14.374Z,0.80
2019-01-11T03:36:55.735Z,0.90
2019-01-11T03:39:36.959Z,0.90
2019-01-11T03:42:19.267Z,0.90
2019-01-11T03:45:00.425Z,0.90
2019-01-11T03:47:42.179Z,1.00
2019-01-11T03:50:23.448Z,1.10
2019-01-11T03:53:04.882Z,0.70
2019-01-11T03:55:45.990Z,0.90
2019-01-11T03:58:27.207Z,1.13
2019-01-11T04:01:08.659Z,0.97
2019-01-11T04:03:51.365Z,1.03
2019-01-11T04:06:32.567Z,0.83
2019-01-11T04:09:13.815Z,0.80
2019-01-11T04:11:55.421Z,0.83
2019-01-11T04:14:36.788Z,0.60
2019-01-11T04:17:18.419Z,1.00
2019-01-11T04:20:02.248Z,0.77
2019-01-11T04:22:45.392Z,1.50
2019-01-11T04:25:27.305Z,1.13
2019-01-11T04:28:08.566Z,1.00
2019-01-11T04:30:50.345Z,1.13
2019-01-11T04:33:31.583Z,0.60
2019-01-11T04:36:12.652Z,0.77
2019-01-11T04:38:54.200Z,0.80
2019-01-11T04:41:35.723Z,0.60
2019-01-11T04:44:17.019Z,0.80
2019-01-11T04:46:58.968Z,1.43
2019-01-11T04:49:39.668Z,0.70
2019-01-11T04:52:21.614Z,0.70
2019-01-11T04:55:02.779Z,0.73
2019-01-11T04:57:44.844Z,0.50
2019-01-11T05:00:26.378Z,1.07
2019-01-11T05:03:06.095Z,0.80
2019-01-11T05:05:45.804Z,0.70
2019-01-11T05:08:27.598Z,0.70
2019-01-11T05:11:09.876Z,0.97
2019-01-11T05:13:51.918Z,1.13
2019-01-11T05:16:31.575Z,1.00
2019-01-11T05:19:13.315Z,0.80
2019-01-11T05:21:54.630Z,0.97
2019-01-11T05:24:35.856Z,0.90
2019-01-11T05:27:17.911Z,0.80
2019-01-11T05:29:59.115Z,0.57
2019-01-11T05:32:40.421Z,0.93
2019-01-11T05:35:21.923Z,1.17
2019-01-11T05:38:03.911Z,0.70
2019-01-11T05:40:43.582Z,1.07
2019-01-11T05:43:25.555Z,1.00
2019-01-11T05:46:06.711Z,0.70
2019-01-11T05:48:47.870Z,1.10
2019-01-11T05:51:29.167Z,0.90
2019-01-11T05:54:10.637Z,0.67
2019-01-11T05:56:51.843Z,0.70
2019-01-11T05:59:33.464Z,0.77
2019-01-11T06:02:14.879Z,0.90
2019-01-11T06:04:57.527Z,0.80
2019-01-11T06:07:40.716Z,0.80
2019-01-11T06:10:22.667Z,0.70
2019-01-11T06:13:04.179Z,1.27
2019-01-11T06:15:45.580Z,1.33
2019-01-11T06:18:26.766Z,1.53
2019-01-11T06:21:08.015Z,0.90
2019-01-11T06:23:49.221Z,0.90
2019-01-11T06:26:30.379Z,1.10
2019-01-11T06:29:11.584Z,0.70
2019-01-11T06:31:53.155Z,1.57
2019-01-11T06:34:34.315Z,1.00
2019-01-11T06:37:15.596Z,0.60
2019-01-11T06:39:57.103Z,1.70
2019-01-11T06:42:38.486Z,0.90
2019-01-11T06:45:19.971Z,0.90
2019-01-11T06:48:01.276Z,1.30
2019-01-11T06:50:42.502Z,0.80
2019-01-11T06:53:23.883Z,1.23
2019-01-11T06:56:05.443Z,0.70
2019-01-11T06:58:46.643Z,0.70
2019-01-11T07:01:28.118Z,0.87
2019-01-11T07:04:09.404Z,0.73
2019-01-11T07:06:50.553Z,1.10
2019-01-11T07:09:31.835Z,1.00
2019-01-11T07:12:13.207Z,0.60
2019-01-11T07:14:54.743Z,0.97
2019-01-11T07:17:36.611Z,1.13
2019-01-11T07:20:17.775Z,1.53
2019-01-11T07:22:58.927Z,1.00
2019-01-11T07:25:40.350Z,1.10
2019-01-11T07:28:19.975Z,1.70
2019-01-11T07:31:05.498Z,1.47
2019-01-11T07:33:45.119Z,1.13
2019-01-11T07:36:29.998Z,0.93
2019-01-11T07:39:13.032Z,1.40
2019-01-11T07:41:54.632Z,1.03
2019-01-11T07:44:34.356Z,2.33
2019-01-11T07:47:16.191Z,1.10
2019-01-11T07:49:57.906Z,1.03
2019-01-11T07:52:40.229Z,1.40
2019-01-11T07:55:21.831Z,0.80
2019-01-11T07:58:03.238Z,1.13
2019-01-11T08:00:44.579Z,1.37
2019-01-11T08:03:25.811Z,1.47
2019-01-11T08:06:07.124Z,1.17
2019-01-11T08:08:48.371Z,1.37
2019-01-11T08:11:30.070Z,2.23
2019-01-11T08:14:11.843Z,1.00
2019-01-11T08:16:53.680Z,0.70
2019-01-11T08:19:35.195Z,1.70
2019-01-11T08:22:16.458Z,1.40
2019-01-11T08:25:02.651Z,1.30
2019-01-11T08:27:45.026Z,1.37
2019-01-11T08:30:26.263Z,1.40
2019-01-11T08:33:07.536Z,1.23
2019-01-11T08:35:49.483Z,1.00
2019-01-11T08:38:30.867Z,2.20
2019-01-11T08:41:12.447Z,1.10
2019-01-11T08:43:53.943Z,1.10
2019-01-11T08:46:33.688Z,1.27
2019-01-11T08:49:15.579Z,1.43
2019-01-11T08:51:57.039Z,1.10
2019-01-11T08:54:38.208Z,1.57
2019-01-11T08:57:19.294Z,1.03
2019-01-11T09:00:00.495Z,1.20
2019-01-11T09:02:42.399Z,1.37
2019-01-11T09:05:24.230Z,3.57
2019-01-11T09:08:05.390Z,1.33
2019-01-11T09:10:47.474Z,1.50
2019-01-11T09:13:30.015Z,1.50
2019-01-11T09:16:11.483Z,1.60
2019-01-11T09:18:53.015Z,2.10
2019-01-11T09:21:34.234Z,1.20
2019-01-11T09:24:15.632Z,3.30
2019-01-11T09:26:56.759Z,3.37
2019-01-11T09:29:37.931Z,3.20
2019-01-11T09:32:19.315Z,1.80
2019-01-11T09:35:00.779Z,2.07
2019-01-11T09:37:42.438Z,1.63
2019-01-11T09:40:24.091Z,2.90
2019-01-11T09:43:05.264Z,3.70
2019-01-11T09:45:46.492Z,3.23
2019-01-11T09:48:26.151Z,2.97
2019-01-11T09:51:08.066Z,2.87
2019-01-11T09:53:49.387Z,2.53
2019-01-11T09:56:30.587Z,3.27
2019-01-11T09:59:11.919Z,4.60
2019-01-11T10:01:54.697Z,3.37
2019-01-11T10:04:38.054Z,2.60
2019-01-11T10:07:19.207Z,2.73
2019-01-11T10:10:00.515Z,4.73
2019-01-11T10:12:41.806Z,4.40
2019-01-11T10:15:23.602Z,3.83
2019-01-11T10:18:05.310Z,3.17
2019-01-11T10:20:48.775Z,2.73
2019-01-11T10:23:28.453Z,3.13
2019-01-11T10:26:11.635Z,2.37
2019-01-11T10:28:52.957Z,3.37
2019-01-11T10:31:34.447Z,2.77
2019-01-11T10:34:14.148Z,3.80
2019-01-11T10:36:56.255Z,3.77
2019-01-11T10:39:37.748Z,1.80
2019-01-11T10:42:17.463Z,2.87
2019-01-11T10:44:59.227Z,2.40
2019-01-11T10:47:40.771Z,3.07
2019-01-11T10:50:22.251Z,2.03
2019-01-11T10:53:03.550Z,2.93
2019-01-11T10:55:43.168Z,2.83
2019-01-11T10:58:24.383Z,3.33
2019-01-11T11:01:05.833Z,3.03
2019-01-11T11:03:47.099Z,3.43
2019-01-11T11:06:28.702Z,2.87
2019-01-11T11:09:10.187Z,2.50
2019-01-11T11:11:51.703Z,2.40
2019-01-11T11:14:31.398Z,3.00
2019-01-11T11:17:13.479Z,2.80
2019-01-11T11:19:54.675Z,2.67
2019-01-11T11:22:36.702Z,2.40
2019-01-11T11:25:17.920Z,2.17
2019-01-11T11:27:59.230Z,3.97
2019-01-11T11:30:40.519Z,4.27
2019-01-11T11:33:21.648Z,2.93
2019-01-11T11:36:01.283Z,3.47
2019-01-11T11:38:43.443Z,9.13
2019-01-11T11:41:25.410Z,9.40
2019-01-11T11:44:07.447Z,7.37
2019-01-11T11:46:49.461Z,9.97
2019-01-11T11:52:28.302Z,9.77
2019-01-11T11:55:10.181Z,9.17
2019-01-11T11:57:51.802Z,11.97
2019-01-11T12:00:33.283Z,16.03
2019-01-11T12:03:14.754Z,12.70
2019-01-11T12:05:54.390Z,9.93
2019-01-11T12:08:36.383Z,12.33
2019-01-11T12:11:18.471Z,12.07
2019-01-11T12:14:00.419Z,12.80
2019-01-11T12:16:41.748Z,13.10
2019-01-11T12:19:21.466Z,10.27
2019-01-11T12:22:03.322Z,11.57
2019-01-11T12:24:45.359Z,12.00
2019-01-11T12:27:27.379Z,13.10
2019-01-11T12:30:08.671Z,12.23
2019-01-11T12:32:49.998Z,12.17
2019-01-11T12:35:31.200Z,10.67
2019-01-11T12:38:13.814Z,11.13
2019-01-11T12:40:55.806Z,12.87
2019-01-11T12:43:37.159Z,10.53
2019-01-11T12:46:18.672Z,12.00
2019-01-11T12:48:59.992Z,13.03
2019-01-11T12:51:41.411Z,12.90
2019-01-11T12:54:21.040Z,12.17
2019-01-11T12:57:02.688Z,13.13
2019-01-11T12:59:43.879Z,13.33
2019-01-11T13:02:26.019Z,11.17
2019-01-11T13:05:08.123Z,12.07
2019-01-11T13:07:49.475Z,11.30
2019-01-11T13:10:30.748Z,11.00
2019-01-11T13:13:12.116Z,11.17
2019-01-11T13:15:54.091Z,10.50
2019-01-11T13:18:35.311Z,10.47
2019-01-11T13:21:17.682Z,11.40
2019-01-11T13:23:59.604Z,13.00
2019-01-11T13:26:40.832Z,13.63
2019-01-11T13:29:22.252Z,10.27
2019-01-11T13:32:03.898Z,10.23
2019-01-11T13:34:45.127Z,12.83
2019-01-11T13:37:26.567Z,12.97
2019-01-11T13:40:08.139Z,9.53
2019-01-11T13:42:49.615Z,12.37
2019-01-11T13:45:30.963Z,11.67
2019-01-11T13:48:13.084Z,10.63
2019-01-11T13:50:54.497Z,11.90
2019-01-11T13:53:35.755Z,9.63
2019-01-11T13:56:17.030Z,8.63
2019-01-11T13:58:58.097Z,8.80
2019-01-11T14:01:39.472Z,8.57
2019-01-11T14:04:20.931Z,9.00
2019-01-11T14:07:02.322Z,9.03
2019-01-11T14:09:43.846Z,9.17
2019-01-11T14:12:25.299Z,10.07
2019-01-11T14:15:07.075Z,9.17
2019-01-11T14:17:46.671Z,8.23
2019-01-11T14:20:28.782Z,10.00
2019-01-11T14:23:09.970Z,7.53
2019-01-11T14:25:51.132Z,8.10
2019-01-11T14:28:32.451Z,9.37
2019-01-11T14:31:13.951Z,8.50
2019-01-11T14:33:55.757Z,7.67
2019-01-11T14:36:37.223Z,7.43
2019-01-11T14:39:18.583Z,8.60
2019-01-11T14:42:00.229Z,7.57
2019-01-11T14:44:41.935Z,6.77
2019-01-11T14:47:23.195Z,7.30
2019-01-11T14:50:05.099Z,7.33
2019-01-11T14:52:47.239Z,6.70
2019-01-11T14:55:28.907Z,7.30
2019-01-11T14:58:10.355Z,6.07
2019-01-11T15:00:51.514Z,6.40
2019-01-11T15:03:32.770Z,6.67
2019-01-11T15:06:14.051Z,6.37
2019-01-11T15:08:55.432Z,7.17
2019-01-11T15:11:36.759Z,6.50
2019-01-11T15:14:18.711Z,7.70
2019-01-11T15:17:00.131Z,6.73
2019-01-11T15:19:41.760Z,5.67
2019-01-11T15:22:26.538Z,6.63
2019-01-11T15:25:06.430Z,5.70
2019-01-11T15:27:45.967Z,5.77
2019-01-11T15:30:27.957Z,5.20
2019-01-11T15:33:09.599Z,6.73
2019-01-11T15:35:50.973Z,5.50
2019-01-11T15:38:33.020Z,9.37
2019-01-11T15:41:14.115Z,7.43
2019-01-11T15:43:55.403Z,7.77
2019-01-11T15:46:36.990Z,6.77
2019-01-11T15:49:18.139Z,6.40
2019-01-11T15:51:59.377Z,5.60
2019-01-11T15:54:41.080Z,5.97
2019-01-11T15:57:24.192Z,5.60
2019-01-11T16:00:06.139Z,7.53
2019-01-11T16:02:47.558Z,6.30
2019-01-11T16:05:28.911Z,9.97
2019-01-11T16:08:10.109Z,5.67
2019-01-11T16:10:51.615Z,5.47
2019-01-11T16:13:33.135Z,4.33
2019-01-11T16:16:15.226Z,6.23
2019-01-11T16:18:56.593Z,3.93
2019-01-11T16:21:36.215Z,3.43
2019-01-11T16:24:18.227Z,5.30
2019-01-11T16:26:59.743Z,5.67
2019-01-11T16:29:41.211Z,6.33
2019-01-11T16:32:22.620Z,5.00
2019-01-11T16:35:04.286Z,4.10
2019-01-11T16:37:45.739Z,4.23
2019-01-11T16:40:27.791Z,3.53
2019-01-11T16:43:09.871Z,3.73
2019-01-11T16:45:51.414Z,3.50
2019-01-11T16:48:33.868Z,4.37
2019-01-11T16:51:16.052Z,4.63
2019-01-11T16:53:57.823Z,4.30
2019-01-11T16:56:39.055Z,4.00
2019-01-11T16:59:20.925Z,3.90
2019-01-11T17:02:02.276Z,4.63
2019-01-11T17:04:43.681Z,3.63
2019-01-11T17:07:25.129Z,3.80
2019-01-11T17:10:07.310Z,3.87
2019-01-11T17:12:48.703Z,4.13
2019-01-11T17:15:30.046Z,2.73
2019-01-11T17:18:09.673Z,2.37
2019-01-11T17:20:51.578Z,5.13
2019-01-11T17:23:32.796Z,4.60
2019-01-11T17:26:14.031Z,3.97
2019-01-11T17:28:55.484Z,3.43
2019-01-11T17:31:36.634Z,3.37
2019-01-11T17:34:16.263Z,3.30
2019-01-11T17:36:58.099Z,2.47
2019-01-11T17:39:39.867Z,2.90
2019-01-11T17:42:21.255Z,3.60
2019-01-11T17:45:02.555Z,3.33
2019-01-11T17:47:44.749Z,3.30
2019-01-11T17:50:25.944Z,2.43
2019-01-11T17:53:05.580Z,3.37
2019-01-11T17:55:46.723Z,5.73
2019-01-11T17:58:28.082Z,3.10
2019-01-11T18:01:09.933Z,2.90
2019-01-11T18:03:51.997Z,2.57
2019-01-11T18:06:33.459Z,2.77
2019-01-11T18:09:14.897Z,2.80
2019-01-11T18:11:56.327Z,2.13
2019-01-11T18:14:38.294Z,3.50
2019-01-11T18:17:17.928Z,3.60
2019-01-11T18:19:59.128Z,3.30
2019-01-11T18:22:40.783Z,2.20
2019-01-11T18:25:21.943Z,2.20
2019-01-11T18:28:01.615Z,2.37
2019-01-11T18:30:42.991Z,2.60
2019-01-11T18:33:24.983Z,4.17
2019-01-11T18:36:06.495Z,2.33
2019-01-11T18:38:47.663Z,2.70
2019-01-11T18:41:29.719Z,3.03
2019-01-11T18:44:11.131Z,4.00
2019-01-11T18:46:50.631Z,4.70
2019-01-11T18:49:32.275Z,1.80
2019-01-11T18:52:13.774Z,2.30
2019-01-11T18:54:55.386Z,2.00
2019-01-11T18:57:37.430Z,3.40
2019-01-11T19:00:18.710Z,2.60
2019-01-11T19:03:00.739Z,2.50
2019-01-11T19:05:42.663Z,3.17
2019-01-11T19:08:23.859Z,5.07
2019-01-11T19:11:05.291Z,3.93
2019-01-11T19:13:46.566Z,2.13
2019-01-11T19:16:26.192Z,1.60
2019-01-11T19:19:08.123Z,2.47
2019-01-11T19:21:49.419Z,1.90
2019-01-11T19:24:31.131Z,1.83
2019-01-11T19:27:12.415Z,1.93
2019-01-11T19:29:53.891Z,2.77
2019-01-11T19:32:35.489Z,1.90
2019-01-11T19:35:16.655Z,3.03
2019-01-11T19:37:57.939Z,3.00
2019-01-11T19:40:39.410Z,2.23
2019-01-11T19:43:21.432Z,1.93
2019-01-11T19:46:02.602Z,2.33
2019-01-11T19:48:44.254Z,2.57
2019-01-11T19:51:25.923Z,1.60
2019-01-11T19:54:07.235Z,2.03
2019-01-11T19:56:46.843Z,1.40
2019-01-11T19:59:28.035Z,2.20
2019-01-11T20:02:09.520Z,1.93
2019-01-11T20:04:50.937Z,2.20
2019-01-11T20:07:30.502Z,1.90
2019-01-11T20:10:12.572Z,1.77
2019-01-11T20:12:55.042Z,2.30
2019-01-11T20:15:36.506Z,2.00
2019-01-11T20:18:17.884Z,2.17
2019-01-11T20:20:59.522Z,1.77
2019-01-11T20:23:41.791Z,2.33
2019-01-11T20:26:23.915Z,2.23
2019-01-11T20:29:03.568Z,2.10
2019-01-11T20:31:44.884Z,1.50
2019-01-11T20:34:26.416Z,2.07
2019-01-11T20:37:07.690Z,2.00
2019-01-11T20:39:48.907Z,2.00
2019-01-11T20:42:30.285Z,2.30
2019-01-11T20:45:11.846Z,2.00
2019-01-11T20:47:53.394Z,1.40
2019-01-11T20:50:34.592Z,2.10
2019-01-11T20:53:15.812Z,2.00
2019-01-11T20:55:57.044Z,2.00
2019-01-11T20:58:38.375Z,1.83
2019-01-11T21:01:20.007Z,2.20
2019-01-11T21:04:02.008Z,1.27
2019-01-11T21:06:44.211Z,2.13
2019-01-11T21:09:25.411Z,1.67
2019-01-11T21:12:06.792Z,1.93
2019-01-11T21:14:48.255Z,2.10
2019-01-11T21:17:30.582Z,1.60
2019-01-11T21:20:12.568Z,2.40
2019-01-11T21:22:53.911Z,2.27
2019-01-11T21:25:35.292Z,2.27
2019-01-11T21:28:16.475Z,2.00
2019-01-11T21:30:58.483Z,1.83
2019-01-11T21:33:39.920Z,1.97
2019-01-11T21:36:21.139Z,1.60
2019-01-11T21:39:00.799Z,1.40
2019-01-11T21:41:42.742Z,1.73
2019-01-11T21:44:24.783Z,1.77
2019-01-11T21:47:06.997Z,1.73
2019-01-11T21:49:48.755Z,2.30
2019-01-11T21:52:30.917Z,1.67
2019-01-11T21:55:12.107Z,1.50
2019-01-11T21:57:53.755Z,1.57
2019-01-11T22:00:34.831Z,1.67
2019-01-11T22:03:16.411Z,2.23
2019-01-11T22:05:57.824Z,1.43
2019-01-11T22:08:37.431Z,2.00
2019-01-11T22:11:20.311Z,1.63
2019-01-11T22:14:01.672Z,1.50
2019-01-11T22:16:42.953Z,1.30
2019-01-11T22:19:25.000Z,1.60
2019-01-11T22:22:07.002Z,1.37
2019-01-11T22:24:49.143Z,1.60
2019-01-11T22:27:30.679Z,1.20
2019-01-11T22:30:12.367Z,1.57
2019-01-11T22:32:53.787Z,1.87
2019-01-11T22:35:35.274Z,1.33
2019-01-11T22:38:16.603Z,1.67
2019-01-11T22:40:58.053Z,2.00
2019-01-11T22:43:39.294Z,1.30
2019-01-11T22:49:17.898Z,1.63
2019-01-11T22:51:59.128Z,1.67
2019-01-11T22:54:40.559Z,1.30
2019-01-11T22:57:20.204Z,1.40
2019-01-11T23:00:02.060Z,1.50
2019-01-11T23:02:43.723Z,1.70
2019-01-11T23:05:24.967Z,1.40
2019-01-11T23:08:07.064Z,1.37
2019-01-11T23:10:48.471Z,1.37
2019-01-11T23:13:29.984Z,1.90
2019-01-11T23:16:11.103Z,1.40
2019-01-11T23:18:52.955Z,2.87
2019-01-11T23:21:34.137Z,1.67
2019-01-11T23:24:17.524Z,1.30
2019-01-11T23:26:58.999Z,2.10
2019-01-11T23:29:40.979Z,1.73
2019-01-11T23:32:23.047Z,1.43
2019-01-11T23:35:05.066Z,1.67
2019-01-11T23:37:46.275Z,1.17
2019-01-11T23:40:27.620Z,1.10
2019-01-11T23:43:08.883Z,1.57
2019-01-11T23:45:50.487Z,1.33
2019-01-11T23:48:32.047Z,1.70
2019-01-11T23:51:13.583Z,1.47
2019-01-11T23:53:54.719Z,1.37
2019-01-11T23:56:36.332Z,1.90
2019-01-11T23:59:17.818Z,1.43
